ボゴタ の空港の天気 - METARとTAF

エルドラド国際空港(ボコダ) ( SKBO / BOG ) - コロンビア ボゴタ
飛行場実況気象(Metar)
観測時間10/15 12:00 COT (10/15 17:00 UTC)
風向・風速北北東 3m/s
視程10km以上
天気現象
全天の8割程度の雲 雲底高度 700m
気温18℃
湿度52%
気圧1027hPa
METARSKBO 151700Z 02006KT 9999 BKN023 18/08 A3034 NOSIG
過去の天気等 Google飛行場航空写真 Wunderground天気予報

過去48時間のMETAR

飛行場予報(TAF)
発表時間: 10/15 05:30 COT (10/15 10:30 UTC)
予報対象時間: 15日7時 COT ~ 16日7時 COT
風向・風速不定 1m/s
視程10km以上
少しの雲 雲底高度 520m
全天の4割程度の雲 雲底高度 2740m
15日9時 COT ~ 15日11時 COT に徐々に
風向・風速南東 5m/s
15日14時 COT ~ 15日18時 COT に 確率 40% で一時的に
天気現象霧雨
全天の8割程度の雲 雲底高度 460m
全天の4割程度の雲 雲底高度 2130m
15日19時 COT ~ 15日21時 COT に徐々に
風向・風速不定 1m/s
TAF SKBO 151030Z 1512/1612 VRB02KT 9999 FEW017 SCT090
BECMG 1514/1516 14010KT
PROB40 TEMPO 1519/1523 DZ BKN015 SCT070
BECMG 1600/1602 VRB02KT TX20/1518Z TN05/1611Z